sensor_id;sensor_type;location;lat;lon;timestamp;temperature;humidity
563;DHT22;266;49.514;8.294;2023-07-13T00:01:19;19.20;99.90
563;DHT22;266;49.514;8.294;2023-07-13T00:03:47;19.20;99.90
563;DHT22;266;49.514;8.294;2023-07-13T00:06:15;19.10;99.90
563;DHT22;266;49.514;8.294;2023-07-13T00:08:43;19.10;99.90
563;DHT22;266;49.514;8.294;2023-07-13T00:11:11;19.10;99.90
563;DHT22;266;49.514;8.294;2023-07-13T00:13:41;19.00;99.90
563;DHT22;266;49.514;8.294;2023-07-13T00:16:10;18.80;99.90
563;DHT22;266;49.514;8.294;2023-07-13T00:18:40;18.60;99.90
563;DHT22;266;49.514;8.294;2023-07-13T00:21:08;18.40;99.90
563;DHT22;266;49.514;8.294;2023-07-13T00:23:38;18.20;99.90
563;DHT22;266;49.514;8.294;2023-07-13T00:26:08;18.00;99.90
563;DHT22;266;49.514;8.294;2023-07-13T00:28:38;17.80;99.90
563;DHT22;266;49.514;8.294;2023-07-13T00:31:08;17.70;99.90
563;DHT22;266;49.514;8.294;2023-07-13T00:33:36;17.70;99.90
563;DHT22;266;49.514;8.294;2023-07-13T00:36:04;17.70;99.90
563;DHT22;266;49.514;8.294;2023-07-13T00:38:32;17.70;99.90
563;DHT22;266;49.514;8.294;2023-07-13T00:41:00;17.80;99.90
563;DHT22;266;49.514;8.294;2023-07-13T00:43:31;17.80;99.90
563;DHT22;266;49.514;8.294;2023-07-13T00:46:18;17.80;99.90
563;DHT22;266;49.514;8.294;2023-07-13T00:48:48;17.90;99.90
563;DHT22;266;49.514;8.294;2023-07-13T00:51:20;17.90;99.90
563;DHT22;266;49.514;8.294;2023-07-13T00:53:50;17.90;99.90
563;DHT22;266;49.514;8.294;2023-07-13T00:56:18;17.90;99.90
563;DHT22;266;49.514;8.294;2023-07-13T00:58:46;17.90;99.90
563;DHT22;266;49.514;8.294;2023-07-13T01:01:16;17.90;99.90
563;DHT22;266;49.514;8.294;2023-07-13T01:03:44;18.00;99.90
563;DHT22;266;49.514;8.294;2023-07-13T01:06:13;18.00;99.90
563;DHT22;266;49.514;8.294;2023-07-13T01:08:41;18.00;99.90
563;DHT22;266;49.514;8.294;2023-07-13T01:11:09;18.00;99.90
563;DHT22;266;49.514;8.294;2023-07-13T01:13:37;18.00;99.90
563;DHT22;266;49.514;8.294;2023-07-13T01:16:13;17.90;99.90
563;DHT22;266;49.514;8.294;2023-07-13T01:18:43;17.90;99.90
563;DHT22;266;49.514;8.294;2023-07-13T01:21:13;17.90;99.90
563;DHT22;266;49.514;8.294;2023-07-13T01:23:41;17.90;99.90
563;DHT22;266;49.514;8.294;2023-07-13T01:26:11;17.90;99.90
563;DHT22;266;49.514;8.294;2023-07-13T01:28:39;17.90;99.90
563;DHT22;266;49.514;8.294;2023-07-13T01:31:07;17.90;99.90
563;DHT22;266;49.514;8.294;2023-07-13T01:33:37;17.90;99.90
563;DHT22;266;49.514;8.294;2023-07-13T01:36:06;18.00;99.90
563;DHT22;266;49.514;8.294;2023-07-13T01:38:35;18.00;99.90
563;DHT22;266;49.514;8.294;2023-07-13T01:41:04;18.00;99.90
563;DHT22;266;49.514;8.294;2023-07-13T01:43:32;18.00;99.90
563;DHT22;266;49.514;8.294;2023-07-13T01:45:59;17.90;99.90
563;DHT22;266;49.514;8.294;2023-07-13T01:48:47;17.90;99.90
563;DHT22;266;49.514;8.294;2023-07-13T01:51:16;17.80;99.90
563;DHT22;266;49.514;8.294;2023-07-13T01:53:45;17.80;99.90
563;DHT22;266;49.514;8.294;2023-07-13T01:56:13;17.80;99.90
563;DHT22;266;49.514;8.294;2023-07-13T01:58:41;17.70;99.90
563;DHT22;266;49.514;8.294;2023-07-13T02:01:09;17.70;99.90
563;DHT22;266;49.514;8.294;2023-07-13T02:03:37;17.70;99.90
563;DHT22;266;49.514;8.294;2023-07-13T02:06:05;17.60;99.90
563;DHT22;266;49.514;8.294;2023-07-13T02:08:33;17.60;99.90
563;DHT22;266;49.514;8.294;2023-07-13T02:11:04;17.60;99.90
563;DHT22;266;49.514;8.294;2023-07-13T02:13:32;17.50;99.90
563;DHT22;266;49.514;8.294;2023-07-13T02:16:00;17.50;99.90
563;DHT22;266;49.514;8.294;2023-07-13T02:18:28;17.50;99.90
563;DHT22;266;49.514;8.294;2023-07-13T02:20:56;17.40;99.90
563;DHT22;266;49.514;8.294;2023-07-13T02:23:23;17.40;99.90
563;DHT22;266;49.514;8.294;2023-07-13T02:25:55;17.40;99.90
563;DHT22;266;49.514;8.294;2023-07-13T02:28:25;17.30;99.90
563;DHT22;266;49.514;8.294;2023-07-13T02:30:52;17.30;99.90
563;DHT22;266;49.514;8.294;2023-07-13T02:33:20;17.30;99.90
563;DHT22;266;49.514;8.294;2023-07-13T02:35:48;17.20;99.90
563;DHT22;266;49.514;8.294;2023-07-13T02:38:16;17.20;99.90
563;DHT22;266;49.514;8.294;2023-07-13T02:40:46;17.20;99.90
563;DHT22;266;49.514;8.294;2023-07-13T02:43:14;17.20;99.90
563;DHT22;266;49.514;8.294;2023-07-13T02:45:45;17.10;99.90
563;DHT22;266;49.514;8.294;2023-07-13T02:48:14;17.10;99.90
563;DHT22;266;49.514;8.294;2023-07-13T02:50:42;17.10;99.90
563;DHT22;266;49.514;8.294;2023-07-13T02:53:11;17.10;99.90
563;DHT22;266;49.514;8.294;2023-07-13T02:55:39;17.10;99.90
563;DHT22;266;49.514;8.294;2023-07-13T02:58:07;17.00;99.90
563;DHT22;266;49.514;8.294;2023-07-13T03:00:38;17.10;99.90
563;DHT22;266;49.514;8.294;2023-07-13T03:03:09;17.00;99.90
563;DHT22;266;49.514;8.294;2023-07-13T03:05:39;17.00;99.90
563;DHT22;266;49.514;8.294;2023-07-13T03:08:08;17.00;99.90
563;DHT22;266;49.514;8.294;2023-07-13T03:10:36;17.00;99.90
563;DHT22;266;49.514;8.294;2023-07-13T03:13:06;17.00;99.90
563;DHT22;266;49.514;8.294;2023-07-13T03:15:34;16.90;99.90
563;DHT22;266;49.514;8.294;2023-07-13T03:18:02;16.90;99.90
563;DHT22;266;49.514;8.294;2023-07-13T03:20:33;16.90;99.90
563;DHT22;266;49.514;8.294;2023-07-13T03:23:01;16.80;99.90
563;DHT22;266;49.514;8.294;2023-07-13T03:25:30;16.80;99.90
563;DHT22;266;49.514;8.294;2023-07-13T03:27:57;16.70;99.90
563;DHT22;266;49.514;8.294;2023-07-13T03:30:25;16.70;99.90
563;DHT22;266;49.514;8.294;2023-07-13T03:32:53;16.70;99.90
563;DHT22;266;49.514;8.294;2023-07-13T03:35:21;16.60;99.90
563;DHT22;266;49.514;8.294;2023-07-13T03:37:51;16.50;99.90
563;DHT22;266;49.514;8.294;2023-07-13T03:40:19;16.20;99.90
563;DHT22;266;49.514;8.294;2023-07-13T03:42:47;16.00;99.90
563;DHT22;266;49.514;8.294;2023-07-13T03:45:15;16.00;99.90
563;DHT22;266;49.514;8.294;2023-07-13T03:47:43;16.00;99.90
563;DHT22;266;49.514;8.294;2023-07-13T03:50:11;16.10;99.90
563;DHT22;266;49.514;8.294;2023-07-13T03:52:39;16.20;99.90
563;DHT22;266;49.514;8.294;2023-07-13T03:55:09;16.30;99.90
563;DHT22;266;49.514;8.294;2023-07-13T03:57:37;16.30;99.90
563;DHT22;266;49.514;8.294;2023-07-13T04:00:07;16.30;99.90
563;DHT22;266;49.514;8.294;2023-07-13T04:02:35;16.40;99.90
563;DHT22;266;49.514;8.294;2023-07-13T04:05:04;16.40;99.90
563;DHT22;266;49.514;8.294;2023-07-13T04:07:33;16.40;99.90
563;DHT22;266;49.514;8.294;2023-07-13T04:10:01;16.40;99.90
563;DHT22;266;49.514;8.294;2023-07-13T04:12:30;16.40;99.90
563;DHT22;266;49.514;8.294;2023-07-13T04:14:58;16.40;99.90
563;DHT22;266;49.514;8.294;2023-07-13T04:17:26;16.40;99.90
563;DHT22;266;49.514;8.294;2023-07-13T04:19:54;16.40;99.90
563;DHT22;266;49.514;8.294;2023-07-13T04:22:22;16.30;99.90
563;DHT22;266;49.514;8.294;2023-07-13T04:24:50;16.40;99.90
563;DHT22;266;49.514;8.294;2023-07-13T04:27:18;16.40;99.90
563;DHT22;266;49.514;8.294;2023-07-13T04:29:50;16.40;99.90
563;DHT22;266;49.514;8.294;2023-07-13T04:32:18;16.50;99.90
563;DHT22;266;49.514;8.294;2023-07-13T04:34:46;16.50;99.90
563;DHT22;266;49.514;8.294;2023-07-13T04:37:14;16.60;99.90
563;DHT22;266;49.514;8.294;2023-07-13T04:39:42;16.60;99.90
563;DHT22;266;49.514;8.294;2023-07-13T04:42:10;16.60;99.90
563;DHT22;266;49.514;8.294;2023-07-13T04:44:38;16.70;99.90
563;DHT22;266;49.514;8.294;2023-07-13T04:47:07;16.70;99.90
563;DHT22;266;49.514;8.294;2023-07-13T04:49:35;16.70;99.90
563;DHT22;266;49.514;8.294;2023-07-13T04:52:04;16.70;99.90
563;DHT22;266;49.514;8.294;2023-07-13T04:54:32;16.70;99.90
563;DHT22;266;49.514;8.294;2023-07-13T04:57:00;16.70;99.90
563;DHT22;266;49.514;8.294;2023-07-13T04:59:28;16.80;99.90
563;DHT22;266;49.514;8.294;2023-07-13T05:01:55;16.80;99.90
563;DHT22;266;49.514;8.294;2023-07-13T05:04:25;16.80;99.90
563;DHT22;266;49.514;8.294;2023-07-13T05:06:53;16.90;99.90
563;DHT22;266;49.514;8.294;2023-07-13T05:09:21;16.90;99.90
563;DHT22;266;49.514;8.294;2023-07-13T05:11:49;17.00;99.90
563;DHT22;266;49.514;8.294;2023-07-13T05:14:17;17.00;99.90
563;DHT22;266;49.514;8.294;2023-07-13T05:16:45;17.00;99.90
563;DHT22;266;49.514;8.294;2023-07-13T05:19:13;17.10;99.90
563;DHT22;266;49.514;8.294;2023-07-13T05:21:42;17.10;99.90
563;DHT22;266;49.514;8.294;2023-07-13T05:24:10;17.20;99.90
563;DHT22;266;49.514;8.294;2023-07-13T05:26:51;17.30;99.90
563;DHT22;266;49.514;8.294;2023-07-13T05:29:20;17.40;99.90
563;DHT22;266;49.514;8.294;2023-07-13T05:31:48;17.40;99.90
563;DHT22;266;49.514;8.294;2023-07-13T05:34:16;17.50;99.90
563;DHT22;266;49.514;8.294;2023-07-13T05:36:45;17.60;99.90
563;DHT22;266;49.514;8.294;2023-07-13T05:39:13;17.60;99.90
563;DHT22;266;49.514;8.294;2023-07-13T05:41:41;17.70;99.90
563;DHT22;266;49.514;8.294;2023-07-13T05:44:09;17.80;99.90
563;DHT22;266;49.514;8.294;2023-07-13T05:46:36;17.90;99.90
563;DHT22;266;49.514;8.294;2023-07-13T05:49:04;18.00;99.90
563;DHT22;266;49.514;8.294;2023-07-13T05:51:32;18.20;99.90
563;DHT22;266;49.514;8.294;2023-07-13T05:54:02;18.30;99.90
563;DHT22;266;49.514;8.294;2023-07-13T05:56:30;18.40;99.90
563;DHT22;266;49.514;8.294;2023-07-13T05:58:57;18.60;99.90
563;DHT22;266;49.514;8.294;2023-07-13T06:01:25;18.80;99.90
563;DHT22;266;49.514;8.294;2023-07-13T06:03:53;18.90;99.90
563;DHT22;266;49.514;8.294;2023-07-13T06:06:21;19.10;99.90
563;DHT22;266;49.514;8.294;2023-07-13T06:08:49;19.30;99.90
563;DHT22;266;49.514;8.294;2023-07-13T06:11:21;19.40;99.90
563;DHT22;266;49.514;8.294;2023-07-13T06:13:50;19.50;99.90
563;DHT22;266;49.514;8.294;2023-07-13T06:16:18;19.60;99.90
563;DHT22;266;49.514;8.294;2023-07-13T06:18:46;19.70;99.90
563;DHT22;266;49.514;8.294;2023-07-13T06:21:16;19.90;99.90
563;DHT22;266;49.514;8.294;2023-07-13T06:23:46;20.00;99.90
563;DHT22;266;49.514;8.294;2023-07-13T06:26:15;20.20;99.90
563;DHT22;266;49.514;8.294;2023-07-13T06:28:45;20.30;99.90
563;DHT22;266;49.514;8.294;2023-07-13T06:31:14;20.50;99.90
563;DHT22;266;49.514;8.294;2023-07-13T06:33:43;20.60;99.90
563;DHT22;266;49.514;8.294;2023-07-13T06:36:11;20.70;99.90
563;DHT22;266;49.514;8.294;2023-07-13T06:38:39;20.80;99.90
563;DHT22;266;49.514;8.294;2023-07-13T06:41:08;21.00;99.90
563;DHT22;266;49.514;8.294;2023-07-13T06:43:36;21.00;99.90
563;DHT22;266;49.514;8.294;2023-07-13T06:46:06;21.10;99.90
563;DHT22;266;49.514;8.294;2023-07-13T06:48:34;21.10;99.90
563;DHT22;266;49.514;8.294;2023-07-13T06:51:02;21.10;99.90
563;DHT22;266;49.514;8.294;2023-07-13T06:53:30;21.10;99.90
563;DHT22;266;49.514;8.294;2023-07-13T06:55:58;21.10;99.90
563;DHT22;266;49.514;8.294;2023-07-13T06:58:26;21.00;99.90
563;DHT22;266;49.514;8.294;2023-07-13T07:00:54;21.10;99.90
563;DHT22;266;49.514;8.294;2023-07-13T07:03:24;21.20;99.90
563;DHT22;266;49.514;8.294;2023-07-13T07:05:52;21.30;99.90
563;DHT22;266;49.514;8.294;2023-07-13T07:08:20;21.40;99.90
563;DHT22;266;49.514;8.294;2023-07-13T07:10:48;21.50;99.90
563;DHT22;266;49.514;8.294;2023-07-13T07:13:20;21.60;99.90
563;DHT22;266;49.514;8.294;2023-07-13T07:15:50;21.70;99.90
563;DHT22;266;49.514;8.294;2023-07-13T07:18:17;21.80;99.90
563;DHT22;266;49.514;8.294;2023-07-13T07:20:48;21.90;99.90
563;DHT22;266;49.514;8.294;2023-07-13T07:23:16;21.90;99.90
563;DHT22;266;49.514;8.294;2023-07-13T07:25:45;22.00;99.90
563;DHT22;266;49.514;8.294;2023-07-13T07:28:15;22.00;99.90
563;DHT22;266;49.514;8.294;2023-07-13T07:30:48;22.10;99.90
563;DHT22;266;49.514;8.294;2023-07-13T07:33:19;22.10;99.90
563;DHT22;266;49.514;8.294;2023-07-13T07:35:49;22.10;99.90
563;DHT22;266;49.514;8.294;2023-07-13T07:38:20;22.10;99.90
563;DHT22;266;49.514;8.294;2023-07-13T07:40:50;22.00;99.90
563;DHT22;266;49.514;8.294;2023-07-13T07:43:21;22.10;99.90
563;DHT22;266;49.514;8.294;2023-07-13T07:45:49;22.10;99.90
563;DHT22;266;49.514;8.294;2023-07-13T07:48:17;22.20;99.90
563;DHT22;266;49.514;8.294;2023-07-13T07:50:45;22.20;99.90
563;DHT22;266;49.514;8.294;2023-07-13T07:53:15;22.20;99.90
563;DHT22;266;49.514;8.294;2023-07-13T07:55:42;22.30;99.90
563;DHT22;266;49.514;8.294;2023-07-13T07:58:13;22.40;99.90
563;DHT22;266;49.514;8.294;2023-07-13T08:01:03;22.50;99.90
563;DHT22;266;49.514;8.294;2023-07-13T08:03:34;22.60;99.90
563;DHT22;266;49.514;8.294;2023-07-13T08:06:06;22.70;99.90
563;DHT22;266;49.514;8.294;2023-07-13T08:08:38;22.90;99.90
563;DHT22;266;49.514;8.294;2023-07-13T08:11:08;23.10;99.90
563;DHT22;266;49.514;8.294;2023-07-13T08:13:39;23.20;99.90
563;DHT22;266;49.514;8.294;2023-07-13T08:16:07;23.30;99.90
563;DHT22;266;49.514;8.294;2023-07-13T08:18:35;23.40;99.90
563;DHT22;266;49.514;8.294;2023-07-13T08:21:04;23.50;99.90
563;DHT22;266;49.514;8.294;2023-07-13T08:23:33;23.60;99.90
563;DHT22;266;49.514;8.294;2023-07-13T08:26:32;23.70;99.90
563;DHT22;266;49.514;8.294;2023-07-13T08:29:04;23.90;99.90
563;DHT22;266;49.514;8.294;2023-07-13T08:31:32;24.20;99.90
563;DHT22;266;49.514;8.294;2023-07-13T08:34:01;24.50;99.90
563;DHT22;266;49.514;8.294;2023-07-13T08:36:29;24.80;99.90
563;DHT22;266;49.514;8.294;2023-07-13T08:38:57;25.00;99.90
563;DHT22;266;49.514;8.294;2023-07-13T08:41:27;25.30;99.90
563;DHT22;266;49.514;8.294;2023-07-13T08:43:59;25.50;99.90
563;DHT22;266;49.514;8.294;2023-07-13T08:46:33;25.80;99.90
563;DHT22;266;49.514;8.294;2023-07-13T08:49:04;26.10;99.90
563;DHT22;266;49.514;8.294;2023-07-13T08:51:40;26.20;99.90
563;DHT22;266;49.514;8.294;2023-07-13T08:54:17;26.30;99.90
563;DHT22;266;49.514;8.294;2023-07-13T08:56:50;26.40;99.90
563;DHT22;266;49.514;8.294;2023-07-13T08:59:22;26.50;99.90
563;DHT22;266;49.514;8.294;2023-07-13T09:02:09;26.70;99.90
563;DHT22;266;49.514;8.294;2023-07-13T09:04:45;26.80;99.90
563;DHT22;266;49.514;8.294;2023-07-13T09:07:23;27.10;99.90
563;DHT22;266;49.514;8.294;2023-07-13T09:10:14;27.50;99.90
563;DHT22;266;49.514;8.294;2023-07-13T09:12:59;27.80;99.90
563;DHT22;266;49.514;8.294;2023-07-13T09:15:30;28.00;99.90
563;DHT22;266;49.514;8.294;2023-07-13T09:18:02;28.10;99.90
563;DHT22;266;49.514;8.294;2023-07-13T09:20:36;28.30;99.90
563;DHT22;266;49.514;8.294;2023-07-13T09:23:10;28.20;99.90
563;DHT22;266;49.514;8.294;2023-07-13T09:25:40;28.30;99.90
563;DHT22;266;49.514;8.294;2023-07-13T09:28:15;28.40;99.90
563;DHT22;266;49.514;8.294;2023-07-13T09:30:51;28.60;99.90
563;DHT22;266;49.514;8.294;2023-07-13T09:33:20;28.60;99.90
563;DHT22;266;49.514;8.294;2023-07-13T09:35:49;28.40;99.90
563;DHT22;266;49.514;8.294;2023-07-13T09:38:19;28.40;99.90
563;DHT22;266;49.514;8.294;2023-07-13T09:41:14;28.10;99.90
563;DHT22;266;49.514;8.294;2023-07-13T09:44:06;27.60;99.90
563;DHT22;266;49.514;8.294;2023-07-13T09:46:35;27.40;99.90
563;DHT22;266;49.514;8.294;2023-07-13T09:49:03;27.70;99.90
563;DHT22;266;49.514;8.294;2023-07-13T09:51:31;28.20;99.90
563;DHT22;266;49.514;8.294;2023-07-13T09:53:59;28.70;99.90
563;DHT22;266;49.514;8.294;2023-07-13T09:56:29;28.80;99.90
563;DHT22;266;49.514;8.294;2023-07-13T09:58:58;29.00;99.40
563;DHT22;266;49.514;8.294;2023-07-13T10:01:37;28.80;99.70
563;DHT22;266;49.514;8.294;2023-07-13T10:04:11;28.90;98.80
563;DHT22;266;49.514;8.294;2023-07-13T10:06:40;28.90;97.60
563;DHT22;266;49.514;8.294;2023-07-13T10:09:10;28.80;97.20
563;DHT22;266;49.514;8.294;2023-07-13T10:11:39;28.80;97.00
563;DHT22;266;49.514;8.294;2023-07-13T10:14:12;28.80;97.00
563;DHT22;266;49.514;8.294;2023-07-13T10:16:43;28.90;96.70
563;DHT22;266;49.514;8.294;2023-07-13T10:19:14;29.10;97.30
563;DHT22;266;49.514;8.294;2023-07-13T10:21:50;29.30;98.30
563;DHT22;266;49.514;8.294;2023-07-13T10:24:21;29.60;95.70
563;DHT22;266;49.514;8.294;2023-07-13T10:26:54;29.70;95.40
563;DHT22;266;49.514;8.294;2023-07-13T10:29:26;29.90;94.90
563;DHT22;266;49.514;8.294;2023-07-13T10:31:56;29.70;94.30
563;DHT22;266;49.514;8.294;2023-07-13T10:34:25;29.40;94.30
563;DHT22;266;49.514;8.294;2023-07-13T10:36:53;29.00;93.30
563;DHT22;266;49.514;8.294;2023-07-13T10:39:24;28.60;93.80
563;DHT22;266;49.514;8.294;2023-07-13T10:41:55;28.60;93.50
563;DHT22;266;49.514;8.294;2023-07-13T10:44:27;28.80;94.10
563;DHT22;266;49.514;8.294;2023-07-13T10:46:59;29.20;93.40
563;DHT22;266;49.514;8.294;2023-07-13T10:49:30;29.10;92.90
563;DHT22;266;49.514;8.294;2023-07-13T10:51:59;28.80;93.60
563;DHT22;266;49.514;8.294;2023-07-13T10:54:30;28.50;93.20
563;DHT22;266;49.514;8.294;2023-07-13T10:57:15;28.40;93.40
563;DHT22;266;49.514;8.294;2023-07-13T10:59:47;28.00;93.30
563;DHT22;266;49.514;8.294;2023-07-13T11:02:25;28.10;93.00
563;DHT22;266;49.514;8.294;2023-07-13T11:04:56;28.60;92.80
563;DHT22;266;49.514;8.294;2023-07-13T11:07:26;28.50;90.50
563;DHT22;266;49.514;8.294;2023-07-13T11:09:56;28.20;91.20
563;DHT22;266;49.514;8.294;2023-07-13T11:12:49;28.10;90.90
563;DHT22;266;49.514;8.294;2023-07-13T11:15:31;28.10;92.70
563;DHT22;266;49.514;8.294;2023-07-13T11:18:04;28.30;91.70
563;DHT22;266;49.514;8.294;2023-07-13T11:20:35;28.40;90.90
563;DHT22;266;49.514;8.294;2023-07-13T11:23:27;28.40;91.00
563;DHT22;266;49.514;8.294;2023-07-13T11:25:55;28.60;91.00
563;DHT22;266;49.514;8.294;2023-07-13T11:28:25;29.00;88.80
563;DHT22;266;49.514;8.294;2023-07-13T11:31:12;28.90;88.20
563;DHT22;266;49.514;8.294;2023-07-13T11:33:57;28.70;87.40
563;DHT22;266;49.514;8.294;2023-07-13T11:36:32;28.30;87.50
563;DHT22;266;49.514;8.294;2023-07-13T11:39:05;28.20;88.10
563;DHT22;266;49.514;8.294;2023-07-13T11:41:45;28.10;87.70
563;DHT22;266;49.514;8.294;2023-07-13T11:44:15;27.70;86.60
563;DHT22;266;49.514;8.294;2023-07-13T11:46:48;27.80;86.70
563;DHT22;266;49.514;8.294;2023-07-13T11:49:23;28.20;90.20
563;DHT22;266;49.514;8.294;2023-07-13T11:51:54;28.20;88.30
563;DHT22;266;49.514;8.294;2023-07-13T11:54:27;28.10;86.20
563;DHT22;266;49.514;8.294;2023-07-13T11:56:59;28.10;86.20
563;DHT22;266;49.514;8.294;2023-07-13T11:59:30;28.00;86.40
563;DHT22;266;49.514;8.294;2023-07-13T12:01:59;27.90;86.90
563;DHT22;266;49.514;8.294;2023-07-13T12:04:30;27.70;87.60
563;DHT22;266;49.514;8.294;2023-07-13T12:07:05;27.40;85.50
563;DHT22;266;49.514;8.294;2023-07-13T12:09:36;27.10;87.60
563;DHT22;266;49.514;8.294;2023-07-13T12:12:11;27.00;86.80
563;DHT22;266;49.514;8.294;2023-07-13T12:14:40;27.00;86.90
563;DHT22;266;49.514;8.294;2023-07-13T12:17:15;27.10;86.80
563;DHT22;266;49.514;8.294;2023-07-13T12:19:45;27.00;86.60
563;DHT22;266;49.514;8.294;2023-07-13T12:22:15;27.10;86.50
563;DHT22;266;49.514;8.294;2023-07-13T12:24:45;27.40;86.20
563;DHT22;266;49.514;8.294;2023-07-13T12:27:19;27.50;85.70
563;DHT22;266;49.514;8.294;2023-07-13T12:29:50;27.70;86.50
563;DHT22;266;49.514;8.294;2023-07-13T12:32:20;27.70;85.40
563;DHT22;266;49.514;8.294;2023-07-13T12:34:54;27.60;86.60
563;DHT22;266;49.514;8.294;2023-07-13T12:37:23;27.60;86.80
563;DHT22;266;49.514;8.294;2023-07-13T12:39:52;27.70;86.60
563;DHT22;266;49.514;8.294;2023-07-13T12:42:22;27.50;84.80
563;DHT22;266;49.514;8.294;2023-07-13T12:44:54;27.30;85.90
563;DHT22;266;49.514;8.294;2023-07-13T12:47:22;27.10;86.60
563;DHT22;266;49.514;8.294;2023-07-13T12:49:56;26.90;86.30
563;DHT22;266;49.514;8.294;2023-07-13T12:52:29;26.80;86.40
563;DHT22;266;49.514;8.294;2023-07-13T12:55:04;26.60;87.20
563;DHT22;266;49.514;8.294;2023-07-13T12:57:39;26.70;86.40
563;DHT22;266;49.514;8.294;2023-07-13T13:00:22;26.80;85.30
563;DHT22;266;49.514;8.294;2023-07-13T13:02:52;27.00;86.50
563;DHT22;266;49.514;8.294;2023-07-13T13:05:35;27.00;84.30
563;DHT22;266;49.514;8.294;2023-07-13T13:08:04;27.10;90.00
563;DHT22;266;49.514;8.294;2023-07-13T13:10:32;27.20;85.00
563;DHT22;266;49.514;8.294;2023-07-13T13:13:02;27.20;84.50
563;DHT22;266;49.514;8.294;2023-07-13T13:15:31;27.00;84.00
563;DHT22;266;49.514;8.294;2023-07-13T13:18:00;26.80;85.50
563;DHT22;266;49.514;8.294;2023-07-13T13:20:28;26.60;85.60
563;DHT22;266;49.514;8.294;2023-07-13T13:22:57;26.50;87.50
563;DHT22;266;49.514;8.294;2023-07-13T13:25:25;26.60;86.60
563;DHT22;266;49.514;8.294;2023-07-13T13:27:53;26.50;88.20
563;DHT22;266;49.514;8.294;2023-07-13T13:30:22;26.50;88.30
563;DHT22;266;49.514;8.294;2023-07-13T13:32:51;26.40;89.20
563;DHT22;266;49.514;8.294;2023-07-13T13:35:20;26.40;87.00
563;DHT22;266;49.514;8.294;2023-07-13T13:37:49;26.40;86.20
563;DHT22;266;49.514;8.294;2023-07-13T13:40:21;26.20;86.30
563;DHT22;266;49.514;8.294;2023-07-13T13:42:50;26.10;85.50
563;DHT22;266;49.514;8.294;2023-07-13T13:45:20;26.00;86.80
563;DHT22;266;49.514;8.294;2023-07-13T13:47:48;26.00;86.30
563;DHT22;266;49.514;8.294;2023-07-13T13:50:18;26.00;86.70
563;DHT22;266;49.514;8.294;2023-07-13T13:52:49;26.00;85.80
563;DHT22;266;49.514;8.294;2023-07-13T13:55:21;26.40;86.70
563;DHT22;266;49.514;8.294;2023-07-13T13:57:50;26.70;86.50
563;DHT22;266;49.514;8.294;2023-07-13T14:00:20;27.00;84.40
563;DHT22;266;49.514;8.294;2023-07-13T14:02:49;27.10;83.30
563;DHT22;266;49.514;8.294;2023-07-13T14:05:21;27.20;82.50
563;DHT22;266;49.514;8.294;2023-07-13T14:07:49;27.20;85.80
563;DHT22;266;49.514;8.294;2023-07-13T14:10:21;27.10;84.30
563;DHT22;266;49.514;8.294;2023-07-13T14:12:52;27.30;83.20
563;DHT22;266;49.514;8.294;2023-07-13T14:15:22;27.80;82.00
563;DHT22;266;49.514;8.294;2023-07-13T14:17:50;28.40;79.90
563;DHT22;266;49.514;8.294;2023-07-13T14:20:20;28.60;75.80
563;DHT22;266;49.514;8.294;2023-07-13T14:22:48;28.70;75.10
563;DHT22;266;49.514;8.294;2023-07-13T14:25:18;28.30;73.80
563;DHT22;266;49.514;8.294;2023-07-13T14:27:49;27.90;74.20
563;DHT22;266;49.514;8.294;2023-07-13T14:30:21;27.40;74.40
563;DHT22;266;49.514;8.294;2023-07-13T14:32:49;27.10;75.10
563;DHT22;266;49.514;8.294;2023-07-13T14:35:20;26.80;77.60
563;DHT22;266;49.514;8.294;2023-07-13T14:37:50;26.90;78.70
563;DHT22;266;49.514;8.294;2023-07-13T14:40:24;26.90;78.10
563;DHT22;266;49.514;8.294;2023-07-13T14:42:54;27.20;76.30
563;DHT22;266;49.514;8.294;2023-07-13T14:45:22;27.50;75.30
563;DHT22;266;49.514;8.294;2023-07-13T14:47:51;27.90;75.20
563;DHT22;266;49.514;8.294;2023-07-13T14:50:20;28.00;74.60
563;DHT22;266;49.514;8.294;2023-07-13T14:52:48;28.00;74.60
563;DHT22;266;49.514;8.294;2023-07-13T14:55:18;27.80;71.50
563;DHT22;266;49.514;8.294;2023-07-13T14:57:48;27.60;71.80
563;DHT22;266;49.514;8.294;2023-07-13T15:00:20;27.30;72.20
563;DHT22;266;49.514;8.294;2023-07-13T15:02:51;27.10;72.30
563;DHT22;266;49.514;8.294;2023-07-13T15:05:22;27.00;72.90
563;DHT22;266;49.514;8.294;2023-07-13T15:07:51;26.70;71.40
563;DHT22;266;49.514;8.294;2023-07-13T15:10:21;26.40;73.20
563;DHT22;266;49.514;8.294;2023-07-13T15:12:51;26.20;73.00
563;DHT22;266;49.514;8.294;2023-07-13T15:15:21;26.10;75.20
563;DHT22;266;49.514;8.294;2023-07-13T15:17:49;26.10;75.80
563;DHT22;266;49.514;8.294;2023-07-13T15:20:26;26.20;75.70
563;DHT22;266;49.514;8.294;2023-07-13T15:22:59;26.40;75.00
563;DHT22;266;49.514;8.294;2023-07-13T15:25:32;26.80;75.20
563;DHT22;266;49.514;8.294;2023-07-13T15:28:01;27.00;74.20
563;DHT22;266;49.514;8.294;2023-07-13T15:30:34;27.00;73.20
563;DHT22;266;49.514;8.294;2023-07-13T15:33:11;27.30;73.00
563;DHT22;266;49.514;8.294;2023-07-13T15:35:41;27.90;72.00
563;DHT22;266;49.514;8.294;2023-07-13T15:38:14;28.40;70.20
563;DHT22;266;49.514;8.294;2023-07-13T15:40:43;28.60;68.50
563;DHT22;266;49.514;8.294;2023-07-13T15:43:12;28.60;66.50
563;DHT22;266;49.514;8.294;2023-07-13T15:45:42;28.60;67.20
563;DHT22;266;49.514;8.294;2023-07-13T15:48:13;28.80;67.70
563;DHT22;266;49.514;8.294;2023-07-13T15:50:45;29.00;67.90
563;DHT22;266;49.514;8.294;2023-07-13T15:53:16;29.40;61.60
563;DHT22;266;49.514;8.294;2023-07-13T15:55:46;29.40;61.60
563;DHT22;266;49.514;8.294;2023-07-13T15:58:15;29.20;61.40
563;DHT22;266;49.514;8.294;2023-07-13T16:00:45;28.80;61.60
563;DHT22;266;49.514;8.294;2023-07-13T16:03:16;28.60;60.80
563;DHT22;266;49.514;8.294;2023-07-13T16:05:47;28.40;63.20
563;DHT22;266;49.514;8.294;2023-07-13T16:08:21;28.00;60.60
563;DHT22;266;49.514;8.294;2023-07-13T16:10:50;27.60;60.30
563;DHT22;266;49.514;8.294;2023-07-13T16:13:20;27.50;60.00
563;DHT22;266;49.514;8.294;2023-07-13T16:15:52;27.20;62.50
563;DHT22;266;49.514;8.294;2023-07-13T16:18:25;27.10;61.10
563;DHT22;266;49.514;8.294;2023-07-13T16:20:59;26.90;66.70
563;DHT22;266;49.514;8.294;2023-07-13T16:23:29;26.60;65.50
563;DHT22;266;49.514;8.294;2023-07-13T16:25:59;26.50;67.60
563;DHT22;266;49.514;8.294;2023-07-13T16:28:27;26.30;68.00
563;DHT22;266;49.514;8.294;2023-07-13T16:30:57;26.30;69.00
563;DHT22;266;49.514;8.294;2023-07-13T16:33:25;26.30;70.30
563;DHT22;266;49.514;8.294;2023-07-13T16:35:53;26.20;70.50
563;DHT22;266;49.514;8.294;2023-07-13T16:38:22;26.10;70.60
563;DHT22;266;49.514;8.294;2023-07-13T16:40:51;26.00;71.90
563;DHT22;266;49.514;8.294;2023-07-13T16:43:19;26.00;70.80
563;DHT22;266;49.514;8.294;2023-07-13T16:45:49;26.00;73.30
563;DHT22;266;49.514;8.294;2023-07-13T16:48:21;26.10;72.30
563;DHT22;266;49.514;8.294;2023-07-13T16:50:53;26.20;73.50
563;DHT22;266;49.514;8.294;2023-07-13T16:53:24;26.40;74.80
563;DHT22;266;49.514;8.294;2023-07-13T16:55:52;26.70;73.50